createdAt,value
2017-08-01T00:00:26.069Z,99973.56
2017-08-01T00:02:53.640Z,99976.03
2017-08-01T00:05:21.197Z,99967.14
2017-08-01T00:07:48.675Z,99957.17
2017-08-01T00:10:16.136Z,99955.27
2017-08-01T00:12:43.764Z,99961.05
2017-08-01T00:15:11.282Z,99970.10
2017-08-01T00:17:38.795Z,100006.13
2017-08-01T00:20:06.350Z,100025.11
2017-08-01T00:22:33.807Z,100148.74
2017-08-01T00:25:01.289Z,100406.73
2017-08-01T00:27:28.825Z,100408.41
2017-08-01T00:29:56.368Z,100328.61
2017-08-01T00:32:23.833Z,100150.73
2017-08-01T00:34:51.290Z,100276.62
2017-08-01T00:37:18.725Z,100302.19
2017-08-01T00:39:46.310Z,100269.12
2017-08-01T00:42:13.876Z,100255.55
2017-08-01T00:44:41.401Z,100269.49
2017-08-01T00:47:08.829Z,100317.84
2017-08-01T00:49:36.289Z,100384.89
2017-08-01T00:52:03.781Z,100486.01
2017-08-01T00:54:31.268Z,100594.97
2017-08-01T00:56:58.705Z,100619.39
2017-08-01T00:59:26.252Z,100552.70
2017-08-01T01:01:53.959Z,100468.05
2017-08-01T01:04:21.576Z,100361.77
2017-08-01T01:06:49.032Z,100311.85
2017-08-01T01:09:16.486Z,100336.19
2017-08-01T01:11:43.944Z,100319.50
2017-08-01T01:14:11.912Z,100273.38
2017-08-01T01:16:39.471Z,100269.27
2017-08-01T01:19:07.017Z,100280.81
2017-08-01T01:21:34.496Z,100270.55
2017-08-01T01:24:02.044Z,100261.60
2017-08-01T01:26:29.604Z,100225.98
2017-08-01T01:28:57.051Z,100213.22
2017-08-01T01:31:24.507Z,100199.69
2017-08-01T01:33:51.956Z,100189.05
2017-08-01T01:36:19.417Z,100151.25
2017-08-01T01:38:46.877Z,100151.64
2017-08-01T01:41:14.325Z,100114.67
2017-08-01T01:43:41.774Z,100121.05
2017-08-01T01:46:09.219Z,100176.39
2017-08-01T01:48:36.687Z,100207.22
2017-08-01T01:51:04.154Z,100231.05
2017-08-01T01:53:31.709Z,100223.95
2017-08-01T01:55:59.169Z,100228.11
2017-08-01T02:00:46.808Z,100176.93
2017-08-01T02:03:14.255Z,100178.78
2017-08-01T02:05:41.725Z,100172.27
2017-08-01T02:08:09.157Z,100174.59
2017-08-01T02:10:36.637Z,100157.30
2017-08-01T02:13:04.070Z,100147.45
2017-08-01T02:15:31.554Z,100138.45
2017-08-01T02:17:59.000Z,100135.15
2017-08-01T02:20:26.934Z,100132.09
2017-08-01T02:22:54.445Z,100145.44
2017-08-01T02:25:21.897Z,100150.67
2017-08-01T02:27:49.363Z,100147.95
2017-08-01T02:30:16.853Z,100152.41
2017-08-01T02:32:44.325Z,100172.82
2017-08-01T02:35:11.780Z,100190.68
2017-08-01T02:37:39.234Z,100201.69
2017-08-01T02:40:06.669Z,100216.33
2017-08-01T02:42:34.204Z,100244.10
2017-08-01T02:45:01.650Z,100280.87
2017-08-01T02:47:29.127Z,100319.84
2017-08-01T02:49:56.573Z,100336.67
2017-08-01T02:52:24.029Z,100375.08
2017-08-01T02:54:51.461Z,100390.83
2017-08-01T02:57:18.928Z,100417.85
2017-08-01T02:59:46.362Z,100400.14
2017-08-01T03:02:13.852Z,100380.48
2017-08-01T03:04:41.285Z,100352.23
2017-08-01T03:07:08.738Z,100319.30
2017-08-01T03:09:36.186Z,100367.75
2017-08-01T03:12:04.777Z,100363.27
2017-08-01T03:14:32.210Z,100363.89
2017-08-01T03:16:59.709Z,100340.27
2017-08-01T03:19:27.273Z,100338.17
2017-08-01T03:21:54.711Z,100309.08
2017-08-01T03:24:22.186Z,100288.64
2017-08-01T03:26:49.616Z,100303.31
2017-08-01T03:29:17.086Z,100285.55
2017-08-01T03:31:44.555Z,100306.17
2017-08-01T03:34:12.071Z,100300.06
2017-08-01T03:36:39.571Z,100294.84
2017-08-01T03:39:07.038Z,100291.32
2017-08-01T03:41:34.579Z,100303.52
2017-08-01T03:44:02.047Z,100290.14
2017-08-01T03:46:29.508Z,100285.42
2017-08-01T03:48:56.971Z,100269.93
2017-08-01T03:51:24.407Z,100242.94
2017-08-01T03:53:51.876Z,100239.98
2017-08-01T03:56:19.394Z,100245.88
2017-08-01T03:58:46.869Z,100226.28
2017-08-01T04:01:14.322Z,100209.16
2017-08-01T04:03:41.771Z,100200.04
2017-08-01T04:06:09.251Z,100186.16
2017-08-01T04:08:36.696Z,100187.80
2017-08-01T04:11:04.150Z,100196.03
2017-08-01T04:13:31.612Z,100182.98
2017-08-01T04:15:59.278Z,100176.00
2017-08-01T04:18:26.730Z,100174.73
2017-08-01T04:20:54.185Z,100167.98
2017-08-01T04:23:21.628Z,100178.61
2017-08-01T04:25:49.097Z,100170.20
2017-08-01T04:28:16.537Z,100172.54
2017-08-01T04:30:44.016Z,100171.11
2017-08-01T04:33:11.482Z,100168.23
2017-08-01T04:35:38.928Z,100168.41
2017-08-01T04:38:06.395Z,100135.15
2017-08-01T04:40:40.794Z,100139.30
2017-08-01T04:43:08.256Z,100168.30
2017-08-01T04:45:35.699Z,100189.00
2017-08-01T04:48:03.154Z,100188.18
2017-08-01T04:50:30.604Z,100181.72
2017-08-01T04:52:58.092Z,100169.58
2017-08-01T04:55:25.533Z,100176.92
2017-08-01T04:57:53.004Z,100168.84
2017-08-01T05:00:20.446Z,100170.28
2017-08-01T05:02:48.072Z,100166.41
2017-08-01T05:05:15.520Z,100170.00
2017-08-01T05:07:42.975Z,100172.18
2017-08-01T05:10:10.487Z,100186.72
2017-08-01T05:12:38.049Z,100199.41
2017-08-01T05:15:05.608Z,100194.72
2017-08-01T05:17:33.153Z,100207.62
2017-08-01T05:20:00.625Z,100202.98
2017-08-01T05:22:28.071Z,100221.06
2017-08-01T05:24:55.525Z,100231.03
2017-08-01T05:27:22.989Z,100234.28
2017-08-01T05:29:50.445Z,100235.51
2017-08-01T05:32:17.889Z,100233.91
2017-08-01T05:34:45.448Z,100242.78
2017-08-01T05:37:12.979Z,100241.36
2017-08-01T05:39:40.466Z,100264.23
2017-08-01T05:42:07.902Z,100260.45
2017-08-01T05:44:35.364Z,100274.02
2017-08-01T05:47:02.818Z,100283.91
2017-08-01T05:49:30.258Z,100286.14
2017-08-01T05:51:57.749Z,100290.80
2017-08-01T05:54:25.223Z,100299.52
2017-08-01T05:56:52.686Z,100320.66
2017-08-01T05:59:20.236Z,100321.27
2017-08-01T06:01:47.690Z,100335.77
2017-08-01T06:04:15.121Z,100361.11
2017-08-01T06:06:42.583Z,100382.09
2017-08-01T06:09:10.055Z,100378.03
2017-08-01T06:11:37.511Z,100388.41
2017-08-01T06:14:04.945Z,100369.27
2017-08-01T06:16:32.415Z,100355.04
2017-08-01T06:18:59.852Z,100346.31
2017-08-01T06:21:27.344Z,100370.50
2017-08-01T06:23:54.778Z,100355.02
2017-08-01T06:26:22.426Z,100351.75
2017-08-01T06:28:49.863Z,100346.83
2017-08-01T06:31:17.293Z,100349.22
2017-08-01T06:33:44.762Z,100360.25
2017-08-01T06:36:12.205Z,100357.62
2017-08-01T06:38:39.674Z,100359.16
2017-08-01T06:41:07.200Z,100367.92
2017-08-01T06:43:34.658Z,100369.41
2017-08-01T06:46:02.214Z,100359.61
2017-08-01T06:48:29.678Z,100345.93
2017-08-01T06:50:57.213Z,100350.61
2017-08-01T06:53:24.665Z,100349.72
2017-08-01T06:55:52.123Z,100350.27
2017-08-01T06:58:19.630Z,100366.08
2017-08-01T07:00:47.202Z,100376.16
2017-08-01T07:03:14.710Z,100378.58
2017-08-01T07:05:42.151Z,100354.03
2017-08-01T07:08:09.612Z,100355.28
2017-08-01T07:10:37.056Z,100361.60
2017-08-01T07:13:04.609Z,100358.98
2017-08-01T07:15:32.042Z,100341.11
2017-08-01T07:17:59.478Z,100374.86
2017-08-01T07:20:26.937Z,100385.31
2017-08-01T07:22:54.599Z,100394.63
2017-08-01T07:25:22.514Z,100376.44
2017-08-01T07:27:49.990Z,100328.15
2017-08-01T07:30:17.465Z,100351.02
2017-08-01T07:32:44.999Z,100352.17
2017-08-01T07:35:12.445Z,100378.22
2017-08-01T07:37:40.534Z,100340.73
2017-08-01T07:40:08.003Z,100331.10
2017-08-01T07:42:35.513Z,100343.67
2017-08-01T07:45:03.008Z,100349.66
2017-08-01T07:47:30.557Z,100365.19
2017-08-01T07:49:58.019Z,100398.11
2017-08-01T07:52:25.464Z,100418.02
2017-08-01T07:54:52.937Z,100439.01
2017-08-01T07:57:20.385Z,100448.06
2017-08-01T07:59:47.938Z,100465.79
2017-08-01T08:02:15.370Z,100514.78
2017-08-01T08:04:42.859Z,100514.03
2017-08-01T08:07:10.309Z,100519.45
2017-08-01T08:09:37.741Z,100542.25
2017-08-01T08:12:05.225Z,100550.14
2017-08-01T08:14:32.687Z,100567.01
2017-08-01T08:17:00.155Z,100612.23
2017-08-01T08:19:27.705Z,100596.29
2017-08-01T08:21:55.185Z,100591.09
2017-08-01T08:24:22.727Z,100571.27
2017-08-01T08:26:50.261Z,100550.36
2017-08-01T08:29:17.702Z,100563.88
2017-08-01T08:31:45.191Z,100537.17
2017-08-01T08:34:12.741Z,100494.03
2017-08-01T08:36:40.217Z,100488.53
2017-08-01T08:39:07.750Z,100486.62
2017-08-01T08:41:35.181Z,100504.25
2017-08-01T08:44:02.646Z,100535.25
2017-08-01T08:46:30.078Z,100556.06
2017-08-01T08:48:57.535Z,100491.09
2017-08-01T08:51:24.982Z,100487.80
2017-08-01T08:53:52.489Z,100480.61
2017-08-01T08:56:19.942Z,100437.94
2017-08-01T08:58:47.389Z,100423.30
2017-08-01T09:01:14.831Z,100371.45
2017-08-01T09:03:42.306Z,100371.87
2017-08-01T09:06:09.739Z,100339.81
2017-08-01T09:08:37.192Z,100338.02
2017-08-01T09:11:04.664Z,100358.80
2017-08-01T09:13:32.145Z,100345.17
2017-08-01T09:15:59.728Z,100346.59
2017-08-01T09:18:27.254Z,100343.75
2017-08-01T09:20:54.827Z,100348.23
2017-08-01T09:23:22.278Z,100352.80
2017-08-01T09:25:49.847Z,100358.34
2017-08-01T09:28:17.395Z,100355.28
2017-08-01T09:30:44.872Z,100359.89
2017-08-01T09:33:12.327Z,100360.15
2017-08-01T09:35:39.880Z,100374.94
2017-08-01T09:38:07.328Z,100391.33
2017-08-01T09:40:34.796Z,100401.78
2017-08-01T09:43:02.237Z,100382.00
2017-08-01T09:45:29.701Z,100384.99
2017-08-01T09:47:57.156Z,100374.22
2017-08-01T09:50:24.602Z,100371.25
2017-08-01T09:52:52.063Z,100367.92
2017-08-01T09:55:19.531Z,100349.23
2017-08-01T09:57:46.983Z,100336.64
2017-08-01T10:00:14.428Z,100333.98
2017-08-01T10:02:41.891Z,100329.60
2017-08-01T10:05:09.330Z,100331.70
2017-08-01T10:07:36.809Z,100335.66
2017-08-01T10:10:04.395Z,100354.20
2017-08-01T10:12:31.909Z,100358.42
2017-08-01T10:14:59.345Z,100341.52
2017-08-01T10:17:26.802Z,100356.76
2017-08-01T10:19:54.287Z,100369.55
2017-08-01T10:22:21.748Z,100345.26
2017-08-01T10:24:49.200Z,100345.34
2017-08-01T10:27:16.768Z,100366.37
2017-08-01T10:29:44.216Z,100337.94
2017-08-01T10:32:11.774Z,100359.44
2017-08-01T10:34:39.260Z,100378.30
2017-08-01T10:37:06.785Z,100378.50
2017-08-01T10:39:34.248Z,100380.75
2017-08-01T10:42:01.702Z,100396.08
2017-08-01T10:44:29.134Z,100408.07
2017-08-01T10:46:56.636Z,100417.27
2017-08-01T10:49:24.109Z,100434.73
2017-08-01T10:51:51.545Z,100444.27
2017-08-01T10:54:19.077Z,100440.78
2017-08-01T10:56:46.537Z,100454.29
2017-08-01T10:59:14.025Z,100447.64
2017-08-01T11:01:41.476Z,100438.39
2017-08-01T11:04:08.948Z,100432.80
2017-08-01T11:06:36.408Z,100431.93
2017-08-01T11:09:03.861Z,100431.62
2017-08-01T11:11:31.315Z,100434.56
2017-08-01T11:13:58.808Z,100435.16
2017-08-01T11:16:26.245Z,100424.70
2017-08-01T11:18:53.697Z,100439.78
2017-08-01T11:21:21.167Z,100444.51
2017-08-01T11:23:48.608Z,100429.19
2017-08-01T11:26:16.079Z,100442.08
2017-08-01T11:28:43.588Z,100438.05
2017-08-01T11:31:11.144Z,100433.17
2017-08-01T11:33:38.687Z,100434.25
2017-08-01T11:36:06.161Z,100442.73
2017-08-01T11:38:33.702Z,100471.00
2017-08-01T11:41:01.150Z,100482.54
2017-08-01T11:43:28.613Z,100500.46
2017-08-01T11:45:56.097Z,100483.84
2017-08-01T11:48:23.533Z,100464.73
2017-08-01T11:50:51.012Z,100484.30
2017-08-01T11:53:18.454Z,100473.00
2017-08-01T11:55:46.006Z,100467.88
2017-08-01T11:58:13.563Z,100470.48
2017-08-01T12:00:41.035Z,100460.59
2017-08-01T12:03:08.489Z,100448.25
2017-08-01T12:05:35.925Z,100429.28
2017-08-01T12:08:03.400Z,100423.33
2017-08-01T12:10:30.941Z,100420.31
2017-08-01T12:12:58.399Z,100405.00
2017-08-01T12:15:25.877Z,100391.11
2017-08-01T12:17:53.343Z,100383.91
2017-08-01T12:20:20.869Z,100378.81
2017-08-01T12:22:48.429Z,100372.63
2017-08-01T12:25:15.901Z,100376.02
2017-08-01T12:27:43.354Z,100385.69
2017-08-01T12:30:10.789Z,100398.06
2017-08-01T12:32:38.242Z,100422.14
2017-08-01T12:35:05.681Z,100448.55
2017-08-01T12:37:33.141Z,100468.20
2017-08-01T12:40:00.582Z,100462.72
2017-08-01T12:42:28.050Z,100467.28
2017-08-01T12:44:55.502Z,100461.35
2017-08-01T12:47:23.063Z,100456.34
2017-08-01T12:49:50.552Z,100451.92
2017-08-01T12:52:17.985Z,100450.78
2017-08-01T12:54:45.476Z,100463.63
2017-08-01T12:57:12.934Z,100463.95
2017-08-01T12:59:40.390Z,100468.31
2017-08-01T13:02:07.837Z,100480.98
2017-08-01T13:04:35.400Z,100486.25
2017-08-01T13:07:02.838Z,100483.76
2017-08-01T13:09:30.290Z,100502.23
2017-08-01T13:11:57.738Z,100507.56
2017-08-01T13:14:25.322Z,100504.75
2017-08-01T13:16:52.796Z,100513.95
2017-08-01T13:19:20.337Z,100485.52
2017-08-01T13:21:47.811Z,100472.24
2017-08-01T13:24:15.318Z,100472.86
2017-08-01T13:26:42.759Z,100486.86
2017-08-01T13:29:10.282Z,100480.34
2017-08-01T13:31:37.717Z,100480.16
2017-08-01T13:34:05.162Z,100474.23
2017-08-01T13:36:32.627Z,100468.13
2017-08-01T13:39:00.117Z,100443.06
2017-08-01T13:41:27.591Z,100463.96
2017-08-01T13:43:55.121Z,100462.31
2017-08-01T13:46:22.680Z,100475.44
2017-08-01T13:48:50.122Z,100454.35
2017-08-01T13:51:17.753Z,100456.17
2017-08-01T13:53:45.267Z,100448.13
2017-08-01T13:56:12.731Z,100443.99
2017-08-01T13:58:40.166Z,100433.80
2017-08-01T14:03:41.701Z,100426.11
2017-08-01T14:06:09.157Z,100392.95
2017-08-01T14:08:36.596Z,100362.50
2017-08-01T14:11:04.053Z,100356.97
2017-08-01T14:13:31.549Z,100359.98
2017-08-01T14:15:59.371Z,100360.67
2017-08-01T14:18:26.904Z,100349.34
2017-08-01T14:20:54.811Z,100331.62
2017-08-01T14:23:22.298Z,100325.70
2017-08-01T14:25:49.729Z,100341.25
2017-08-01T14:28:17.205Z,100333.06
2017-08-01T14:30:44.652Z,100299.41
2017-08-01T14:33:12.121Z,100267.47
2017-08-01T14:35:39.549Z,100253.61
2017-08-01T14:38:07.001Z,100244.77
2017-08-01T14:40:34.503Z,100232.63
2017-08-01T14:43:01.961Z,100240.89
2017-08-01T14:45:29.408Z,100270.30
2017-08-01T14:47:56.897Z,100305.80
2017-08-01T14:50:24.369Z,100323.78
2017-08-01T14:52:51.814Z,100317.16
2017-08-01T14:55:19.318Z,100272.09
2017-08-01T14:57:46.824Z,100249.55
2017-08-01T15:00:14.307Z,100248.91
2017-08-01T15:02:41.742Z,100247.41
2017-08-01T15:05:09.192Z,100281.83
2017-08-01T15:07:36.714Z,100297.75
2017-08-01T15:10:04.171Z,100322.13
2017-08-01T15:12:31.611Z,100336.77
2017-08-01T15:14:59.061Z,100375.59
2017-08-01T15:17:26.552Z,100400.86
2017-08-01T15:19:54.004Z,100329.63
2017-08-01T15:22:21.433Z,100299.78
2017-08-01T15:24:48.922Z,100278.42
2017-08-01T15:27:16.481Z,100296.52
2017-08-01T15:29:44.026Z,100259.23
2017-08-01T15:32:11.478Z,100264.07
2017-08-01T15:34:38.979Z,100240.23
2017-08-01T15:37:06.418Z,100306.36
2017-08-01T15:39:33.864Z,100322.52
2017-08-01T15:42:01.326Z,100345.54
2017-08-01T15:44:28.774Z,100358.65
2017-08-01T15:46:56.225Z,100349.31
2017-08-01T15:49:23.671Z,100346.52
2017-08-01T15:51:51.121Z,100336.48
2017-08-01T15:54:18.598Z,100322.77
2017-08-01T15:56:46.050Z,100301.83
2017-08-01T15:59:13.856Z,100289.16
2017-08-01T16:01:41.381Z,100267.67
2017-08-01T16:04:08.823Z,100249.55
2017-08-01T16:06:36.285Z,100266.66
2017-08-01T16:09:03.726Z,100297.38
2017-08-01T16:11:31.207Z,100263.45
2017-08-01T16:13:58.760Z,100287.92
2017-08-01T16:16:26.233Z,100282.09
2017-08-01T16:18:53.674Z,100290.78
2017-08-01T16:21:21.126Z,100300.60
2017-08-01T16:23:48.557Z,100317.06
2017-08-01T16:26:16.043Z,100322.03
2017-08-01T16:28:43.520Z,100328.73
2017-08-01T16:31:10.961Z,100334.69
2017-08-01T16:33:38.478Z,100345.45
2017-08-01T16:36:06.103Z,100349.72
2017-08-01T16:38:33.567Z,100354.09
2017-08-01T16:41:01.102Z,100371.03
2017-08-01T16:43:28.651Z,100375.52
2017-08-01T16:45:56.118Z,100370.86
2017-08-01T16:48:23.937Z,100371.87
2017-08-01T16:50:51.427Z,100367.20
2017-08-01T16:53:18.886Z,100359.19
2017-08-01T16:55:46.445Z,100368.84
2017-08-01T16:58:13.913Z,100377.42
2017-08-01T17:00:41.478Z,100370.18
2017-08-01T17:03:08.983Z,100375.98
2017-08-01T17:05:36.438Z,100373.13
2017-08-01T17:08:03.913Z,100373.88
2017-08-01T17:10:31.370Z,100367.89
2017-08-01T17:12:58.805Z,100377.34
2017-08-01T17:15:26.298Z,100375.41
2017-08-01T17:17:53.743Z,100364.66
2017-08-01T17:20:21.221Z,100366.18
2017-08-01T17:22:48.773Z,100376.88
2017-08-01T17:25:16.281Z,100395.73
2017-08-01T17:27:43.717Z,100397.89
2017-08-01T17:30:11.206Z,100396.73
2017-08-01T17:32:38.695Z,100391.66
2017-08-01T17:35:06.146Z,100381.34
2017-08-01T17:37:33.590Z,100365.63
2017-08-01T17:40:01.025Z,100362.96
2017-08-01T17:42:28.481Z,100362.89
2017-08-01T17:44:55.943Z,100358.70
2017-08-01T17:47:23.518Z,100371.97
2017-08-01T17:49:51.255Z,100366.74
2017-08-01T17:52:19.120Z,100370.19
2017-08-01T17:54:46.780Z,100374.20
2017-08-01T17:57:14.418Z,100373.16
2017-08-01T17:59:42.087Z,100388.56
2017-08-01T18:02:09.765Z,100387.09
2017-08-01T18:04:37.257Z,100386.75
2017-08-01T18:07:04.733Z,100375.78
2017-08-01T18:09:32.278Z,100379.80
2017-08-01T18:11:59.752Z,100391.54
2017-08-01T18:14:27.296Z,100393.27
2017-08-01T18:16:54.746Z,100389.14
2017-08-01T18:19:22.201Z,100377.73
2017-08-01T18:21:49.675Z,100384.19
2017-08-01T18:24:17.213Z,100379.76
2017-08-01T18:26:44.691Z,100382.47
2017-08-01T18:29:12.155Z,100372.86
2017-08-01T18:31:39.593Z,100382.22
2017-08-01T18:34:07.050Z,100402.70
2017-08-01T18:36:34.494Z,100408.84
2017-08-01T18:39:02.065Z,100402.83
2017-08-01T18:41:29.511Z,100407.09
2017-08-01T18:43:57.065Z,100416.87
2017-08-01T18:46:24.498Z,100415.92
2017-08-01T18:48:51.953Z,100414.70
2017-08-01T18:51:19.386Z,100424.89
2017-08-01T18:53:46.997Z,100421.31
2017-08-01T18:56:14.441Z,100431.51
2017-08-01T18:58:41.930Z,100426.91
2017-08-01T19:01:09.392Z,100412.71
2017-08-01T19:03:36.921Z,100416.72
2017-08-01T19:06:04.877Z,100424.16
2017-08-01T19:08:32.412Z,100425.95
2017-08-01T19:10:59.845Z,100431.32
2017-08-01T19:13:27.286Z,100434.80
2017-08-01T19:15:54.737Z,100430.00
2017-08-01T19:18:22.389Z,100419.86
2017-08-01T19:20:49.842Z,100426.05
2017-08-01T19:23:17.283Z,100430.91
2017-08-01T19:25:44.755Z,100443.70
2017-08-01T19:28:12.273Z,100444.11
2017-08-01T19:30:39.821Z,100438.70
2017-08-01T19:33:07.321Z,100435.56
2017-08-01T19:35:34.794Z,100439.48
2017-08-01T19:38:02.352Z,100449.28
2017-08-01T19:40:29.820Z,100453.61
2017-08-01T19:42:57.445Z,100455.20
2017-08-01T19:45:24.910Z,100450.82
2017-08-01T19:47:52.376Z,100444.67
2017-08-01T19:50:19.826Z,100442.52
2017-08-01T19:52:47.398Z,100436.59
2017-08-01T19:55:14.864Z,100432.77
2017-08-01T19:57:42.342Z,100435.05
2017-08-01T20:00:09.865Z,100436.39
2017-08-01T20:02:37.317Z,100450.28
2017-08-01T20:05:04.749Z,100459.68
2017-08-01T20:07:32.229Z,100472.87
2017-08-01T20:09:59.680Z,100475.56
2017-08-01T20:12:27.137Z,100479.75
2017-08-01T20:14:54.589Z,100474.70
2017-08-01T20:17:22.053Z,100487.33
2017-08-01T20:19:49.792Z,100482.62
2017-08-01T20:22:17.242Z,100480.38
2017-08-01T20:24:44.735Z,100483.36
2017-08-01T20:27:12.169Z,100480.98
2017-08-01T20:29:39.645Z,100478.64
2017-08-01T20:32:07.077Z,100478.15
2017-08-01T20:34:34.619Z,100493.50
2017-08-01T20:37:02.176Z,100504.63
2017-08-01T20:39:29.634Z,100504.23
2017-08-01T20:41:57.069Z,100498.46
2017-08-01T20:44:24.619Z,100502.53
2017-08-01T20:46:52.082Z,100503.61
2017-08-01T20:49:19.597Z,100497.97
2017-08-01T20:51:47.157Z,100505.06
2017-08-01T20:54:14.614Z,100514.89
2017-08-01T20:56:42.184Z,100515.33
2017-08-01T20:59:09.729Z,100520.56
2017-08-01T21:01:37.266Z,100510.94
2017-08-01T21:04:04.746Z,100513.70
2017-08-01T21:06:32.223Z,100512.48
2017-08-01T21:08:59.676Z,100505.36
2017-08-01T21:11:27.154Z,100506.48
2017-08-01T21:13:54.611Z,100508.63
2017-08-01T21:16:22.082Z,100518.81
2017-08-01T21:18:49.646Z,100522.57
2017-08-01T21:21:17.178Z,100518.47
2017-08-01T21:23:44.768Z,100518.16
2017-08-01T21:26:12.261Z,100519.94
2017-08-01T21:28:39.716Z,100514.86
2017-08-01T21:31:07.262Z,100521.91
2017-08-01T21:33:34.729Z,100520.72
2017-08-01T21:36:02.339Z,100517.17
2017-08-01T21:38:30.986Z,100524.86
2017-08-01T21:40:58.528Z,100527.80
2017-08-01T21:43:26.010Z,100528.30
2017-08-01T21:45:54.031Z,100534.89
2017-08-01T21:48:21.689Z,100543.04
2017-08-01T21:50:49.186Z,100539.96
2017-08-01T21:53:16.808Z,100544.31
2017-08-01T21:55:44.260Z,100545.18
2017-08-01T21:58:11.717Z,100546.48
2017-08-01T22:00:39.185Z,100546.78
2017-08-01T22:03:07.028Z,100553.31
2017-08-01T22:05:34.470Z,100555.77
2017-08-01T22:08:01.991Z,100554.66
2017-08-01T22:10:29.456Z,100550.17
2017-08-01T22:12:56.911Z,100549.45
2017-08-01T22:15:24.385Z,100570.28
2017-08-01T22:17:51.853Z,100571.31
2017-08-01T22:20:19.387Z,100577.72
2017-08-01T22:22:46.825Z,100575.24
2017-08-01T22:25:14.285Z,100579.97
2017-08-01T22:27:41.742Z,100588.33
2017-08-01T22:30:09.298Z,100585.64
2017-08-01T22:32:36.757Z,100586.14
2017-08-01T22:35:04.223Z,100593.33
2017-08-01T22:37:31.675Z,100601.45
2017-08-01T22:39:59.246Z,100603.22
2017-08-01T22:42:26.790Z,100603.63
2017-08-01T22:44:54.260Z,100608.83
2017-08-01T22:47:21.716Z,100622.39
2017-08-01T22:49:49.226Z,100616.08
2017-08-01T22:52:16.665Z,100608.82
2017-08-01T22:54:45.015Z,100616.28
2017-08-01T22:57:12.458Z,100606.72
2017-08-01T22:59:40.124Z,100600.81
2017-08-01T23:02:07.575Z,100595.14
2017-08-01T23:04:35.022Z,100598.92
2017-08-01T23:07:02.577Z,100590.05
2017-08-01T23:09:30.017Z,100594.05
2017-08-01T23:11:57.483Z,100587.62
2017-08-01T23:14:24.922Z,100587.16
2017-08-01T23:16:52.388Z,100587.81
2017-08-01T23:19:19.866Z,100577.32
2017-08-01T23:21:47.344Z,100567.72
2017-08-01T23:24:14.873Z,100564.11
2017-08-01T23:26:42.400Z,100554.47
2017-08-01T23:29:09.890Z,100555.97
2017-08-01T23:31:37.841Z,100555.92
2017-08-01T23:34:05.321Z,100561.23
2017-08-01T23:36:32.788Z,100563.80
2017-08-01T23:39:00.330Z,100559.17
2017-08-01T23:41:27.770Z,100562.69
2017-08-01T23:43:55.572Z,100561.30
2017-08-01T23:46:23.014Z,100557.39
2017-08-01T23:48:50.482Z,100550.30
2017-08-01T23:51:17.936Z,100553.88
2017-08-01T23:53:45.391Z,100556.91
2017-08-01T23:56:12.948Z,100558.75
2017-08-01T23:58:40.494Z,100563.68
